Temp: 17.3°C   Baro: 1015.3mb
  Wind: 6.0mph   Dir: WNW (287°)
  Rain: 9.6mm (0.0mm/hr)
  Solar: 773W/m2  Hum: 67%
 
Bath Spa Weather Historical Data
Daily Summary for May 16, 2019 Units:  Both    English   Metric
Next Day »
Daily Weekly Monthly Yearly Custom
  High: Low: Average:
Temperature: 66.2 °F /  19.0 °C 44.4 °F /  6.9 °C 55.6 °F /  13.1 °C
Dew Point: 48 °F /  8.9 °C 37 °F /  2.8 °C 41.7 °F /  5.4 °C
Humidity: 77% 43% 61%
Wind Speed: 13mph /  20.9km/h - 3mph /  4.8km/h
Wind Gust: 15mph /  24.1km/h - -
Wind direction- - ESE
Pressure: 30.2 in /  1021.9 hPa 29.9 in /  1013.8 hPa -
Precipitation: 0 in /  0.0 mm    
Historical Graphs
 
 
Tabular Data for May 16, 2019
Time Temperature Dew Point Pressure Wind direction Wind Speed Wind Gust Humidity Rainfall Rate (Hourly) solar
00:04 53.2 °F /  11.8 °C 42.6 °F /  5.9 °C 30.2in /  1021.9hPa ENE 2.9mph /  4.7km/h 3mph /  4.8km/h 67% 0in /  0.0mm 0.00 W/m2
00:09 53.1 °F /  11.7 °C 42.4 °F /  5.8 °C 30.2in /  1021.9hPa Calm   2mph /  3.2km/h 67% 0in /  0.0mm 0.00 W/m2
00:14 52.7 °F /  11.5 °C 42.4 °F /  5.8 °C 30.2in /  1021.9hPa East 4.9mph /  7.9km/h 5mph /  8.0km/h 68% 0in /  0.0mm 0.00 W/m2
00:19 52.5 °F /  11.4 °C 42.3 °F /  5.7 °C 30.2in /  1021.9hPa SE 4.9mph /  7.9km/h 7mph /  11.3km/h 68% 0in /  0.0mm 0.00 W/m2
00:24 52.9 °F /  11.6 °C 42.3 °F /  5.7 °C 30.2in /  1021.9hPa ESE 2.9mph /  4.7km/h 5mph /  8.0km/h 67% 0in /  0.0mm 0.00 W/m2
00:29 53.2 °F /  11.8 °C 42.3 °F /  5.7 °C 30.2in /  1021.6hPa Calm   5mph /  8.0km/h 66% 0in /  0.0mm 0.00 W/m2
00:34 53.2 °F /  11.8 °C 42.3 °F /  5.7 °C 30.2in /  1021.6hPa ESE 2.9mph /  4.7km/h 5mph /  8.0km/h 66% 0in /  0.0mm 0.00 W/m2
00:39 53.2 °F /  11.8 °C 42.3 °F /  5.7 °C 30.2in /  1021.6hPa SE 4mph /  6.4km/h 5mph /  8.0km/h 66% 0in /  0.0mm 0.00 W/m2
00:44 53.1 °F /  11.7 °C 42.4 °F /  5.8 °C 30.2in /  1021.6hPa ESE 4mph /  6.4km/h 5mph /  8.0km/h 67% 0in /  0.0mm 0.00 W/m2
00:49 52.9 °F /  11.6 °C 42.3 °F /  5.7 °C 30.2in /  1021.6hPa ESE 0.9mph /  1.4km/h 3mph /  4.8km/h 67% 0in /  0.0mm 0.00 W/m2
00:54 52.7 °F /  11.5 °C 42.4 °F /  5.8 °C 30.2in /  1021.6hPa ESE 0.9mph /  1.4km/h 3mph /  4.8km/h 68% 0in /  0.0mm 0.00 W/m2
00:59 52.3 °F /  11.3 °C 42.4 °F /  5.8 °C 30.2in /  1021.2hPa ESE 0.9mph /  1.4km/h 2mph /  3.2km/h 69% 0in /  0.0mm 0.00 W/m2
01:04 52 °F /  11.1 °C 42.4 °F /  5.8 °C 30.2in /  1021.2hPa ESE 2mph /  3.2km/h 2mph /  3.2km/h 70% 0in /  0.0mm 0.00 W/m2
01:09 51.8 °F /  11.0 °C 42.6 °F /  5.9 °C 30.2in /  1021.2hPa Calm   3mph /  4.8km/h 71% 0in /  0.0mm 0.00 W/m2
01:14 51.4 °F /  10.8 °C 42.4 °F /  5.8 °C 30.2in /  1021.2hPa ESE 4mph /  6.4km/h 4mph /  6.4km/h 71% 0in /  0.0mm 0.00 W/m2
01:19 51.3 °F /  10.7 °C 42.6 °F /  5.9 °C 30.2in /  1021.2hPa Calm   4mph /  6.4km/h 72% 0in /  0.0mm 0.00 W/m2
01:24 51.1 °F /  10.6 °C 42.4 °F /  5.8 °C 30.2in /  1021.2hPa Calm   2mph /  3.2km/h 72% 0in /  0.0mm 0.00 W/m2
01:29 50.9 °F /  10.5 °C 42.3 °F /  5.7 °C 30.2in /  1021.2hPa Calm   4mph /  6.4km/h 72% 0in /  0.0mm 0.00 W/m2
01:34 50.7 °F /  10.4 °C 42.1 °F /  5.6 °C 30.2in /  1021.2hPa ESE 0.9mph /  1.4km/h 2mph /  3.2km/h 72% 0in /  0.0mm 0.00 W/m2
01:39 50.5 °F /  10.3 °C 42.3 °F /  5.7 °C 30.2in /  1021.2hPa ESE 0.9mph /  1.4km/h 1mph /  1.6km/h 73% 0in /  0.0mm 0.00 W/m2
01:44 50.4 °F /  10.2 °C 42.1 °F /  5.6 °C 30.2in /  1021.2hPa ESE 2.9mph /  4.7km/h 3mph /  4.8km/h 73% 0in /  0.0mm 0.00 W/m2
01:49 49.8 °F /  9.9 °C 41.5 °F /  5.3 °C 30.2in /  1021.2hPa Calm   3mph /  4.8km/h 73% 0in /  0.0mm 0.00 W/m2
01:54 49.6 °F /  9.8 °C 41 °F /  5.0 °C 30.2in /  1021.2hPa ESE 0.9mph /  1.4km/h 4mph /  6.4km/h 72% 0in /  0.0mm 0.00 W/m2
01:59 49.5 °F /  9.7 °C 40.8 °F /  4.9 °C 30.2in /  1021.2hPa Calm   3mph /  4.8km/h 72% 0in /  0.0mm 0.00 W/m2
02:04 49.5 °F /  9.7 °C 40.8 °F /  4.9 °C 30.2in /  1021.2hPa SE 2mph /  3.2km/h 4mph /  6.4km/h 72% 0in /  0.0mm 0.00 W/m2
02:09 49.1 °F /  9.5 °C 40.5 °F /  4.7 °C 30.2in /  1021.2hPa Calm   2mph /  3.2km/h 72% 0in /  0.0mm 0.00 W/m2
02:14 49.1 °F /  9.5 °C 40.5 °F /  4.7 °C 30.2in /  1021.2hPa Calm   3mph /  4.8km/h 72% 0in /  0.0mm 0.00 W/m2
02:19 48.9 °F /  9.4 °C 39.9 °F /  4.4 °C 30.2in /  1021.2hPa Calm   2mph /  3.2km/h 71% 0in /  0.0mm 0.00 W/m2
02:24 48.7 °F /  9.3 °C 40.1 °F /  4.5 °C 30.2in /  1021.2hPa Calm     72% 0in /  0.0mm 0.00 W/m2
02:29 48.6 °F /  9.2 °C 39.9 °F /  4.4 °C 30.2in /  1021.2hPa Calm     72% 0in /  0.0mm 0.00 W/m2
02:34 48.4 °F /  9.1 °C 39.7 °F /  4.3 °C 30.2in /  1021.2hPa ESE 2mph /  3.2km/h 2mph /  3.2km/h 72% 0in /  0.0mm 0.00 W/m2
02:39 48.2 °F /  9.0 °C 39.6 °F /  4.2 °C 30.2in /  1021.2hPa ESE 3mph /  4.8km/h 3mph /  4.8km/h 72% 0in /  0.0mm 0.00 W/m2
02:44 48 °F /  8.9 °C 39.4 °F /  4.1 °C 30.2in /  1021.2hPa Calm   2mph /  3.2km/h 72% 0in /  0.0mm 0.00 W/m2
02:49 48 °F /  8.9 °C 39.4 °F /  4.1 °C 30.2in /  1021.2hPa Calm   2mph /  3.2km/h 72% 0in /  0.0mm 0.00 W/m2
02:54 48 °F /  8.9 °C 39.4 °F /  4.1 °C 30.2in /  1021.2hPa Calm   2mph /  3.2km/h 72% 0in /  0.0mm 0.00 W/m2
02:59 48 °F /  8.9 °C 39.4 °F /  4.1 °C 30.2in /  1021.2hPa Calm   6mph /  9.7km/h 72% 0in /  0.0mm 0.00 W/m2
03:04 48.2 °F /  9.0 °C 39.6 °F /  4.2 °C 30.2in /  1021.2hPa ENE 2mph /  3.2km/h 3mph /  4.8km/h 72% 0in /  0.0mm 0.00 W/m2
03:09 48.2 °F /  9.0 °C 39.2 °F /  4.0 °C 30.2in /  1020.9hPa Calm   2mph /  3.2km/h 71% 0in /  0.0mm 0.00 W/m2
03:14 48.4 °F /  9.1 °C 39.4 °F /  4.1 °C 30.2in /  1020.9hPa ENE 2mph /  3.2km/h 2mph /  3.2km/h 71% 0in /  0.0mm 0.00 W/m2
03:19 48.4 °F /  9.1 °C 39.4 °F /  4.1 °C 30.2in /  1020.9hPa ENE 0.9mph /  1.4km/h 3mph /  4.8km/h 71% 0in /  0.0mm 0.00 W/m2
03:24 48.4 °F /  9.1 °C 39.4 °F /  4.1 °C 30.2in /  1021.2hPa NE 0.9mph /  1.4km/h 5mph /  8.0km/h 71% 0in /  0.0mm 0.00 W/m2
03:29 48.4 °F /  9.1 °C 39.4 °F /  4.1 °C 30.2in /  1021.2hPa ENE 2mph /  3.2km/h 2mph /  3.2km/h 71% 0in /  0.0mm 0.00 W/m2
03:34 48.2 °F /  9.0 °C 39.2 °F /  4.0 °C 30.2in /  1020.9hPa Calm   1mph /  1.6km/h 71% 0in /  0.0mm 0.00 W/m2
03:39 48.2 °F /  9.0 °C 39.2 °F /  4.0 °C 30.2in /  1020.9hPa Calm   2mph /  3.2km/h 71% 0in /  0.0mm 0.00 W/m2
03:44 47.8 °F /  8.8 °C 38.8 °F /  3.8 °C 30.2in /  1020.9hPa ENE 2mph /  3.2km/h 2mph /  3.2km/h 71% 0in /  0.0mm 0.00 W/m2
03:49 47.7 °F /  8.7 °C 39 °F /  3.9 °C 30.2in /  1020.9hPa Calm     72% 0in /  0.0mm 0.00 W/m2
03:54 47.5 °F /  8.6 °C 38.8 °F /  3.8 °C 30.2in /  1020.9hPa Calm     72% 0in /  0.0mm 0.00 W/m2
03:59 47.1 °F /  8.4 °C 38.5 °F /  3.6 °C 30.2in /  1020.9hPa Calm     72% 0in /  0.0mm 0.00 W/m2
04:04 46.9 °F /  8.3 °C 38.3 °F /  3.5 °C 30.2in /  1020.9hPa Calm   3mph /  4.8km/h 72% 0in /  0.0mm 0.00 W/m2
04:09 46.6 °F /  8.1 °C 38.5 °F /  3.6 °C 30.2in /  1020.9hPa ENE 2mph /  3.2km/h 3mph /  4.8km/h 73% 0in /  0.0mm 0.00 W/m2
04:14 46.4 °F /  8.0 °C 38.3 °F /  3.5 °C 30.2in /  1020.9hPa ENE 2.9mph /  4.7km/h 3mph /  4.8km/h 73% 0in /  0.0mm 0.00 W/m2
04:19 46.2 °F /  7.9 °C 38.1 °F /  3.4 °C 30.2in /  1020.9hPa Calm   1mph /  1.6km/h 73% 0in /  0.0mm 0.00 W/m2
04:24 46.2 °F /  7.9 °C 38.1 °F /  3.4 °C 30.2in /  1020.9hPa Calm   3mph /  4.8km/h 73% 0in /  0.0mm 0.00 W/m2
04:29 46 °F /  7.8 °C 38.3 °F /  3.5 °C 30.1in /  1020.5hPa Calm   3mph /  4.8km/h 74% 0in /  0.0mm 0.00 W/m2
04:34 45.5 °F /  7.5 °C 37.8 °F /  3.2 °C 30.1in /  1020.5hPa ESE 2mph /  3.2km/h 5mph /  8.0km/h 74% 0in /  0.0mm 0.00 W/m2
04:39 45.5 °F /  7.5 °C 37.8 °F /  3.2 °C 30.1in /  1020.5hPa ESE 0.9mph /  1.4km/h 2mph /  3.2km/h 74% 0in /  0.0mm 0.00 W/m2
04:44 45.3 °F /  7.4 °C 37.6 °F /  3.1 °C 30.1in /  1020.5hPa ESE 0.9mph /  1.4km/h 3mph /  4.8km/h 74% 0in /  0.0mm 0.00 W/m2
04:49 45.3 °F /  7.4 °C 37.6 °F /  3.1 °C 30.1in /  1020.5hPa ESE 2mph /  3.2km/h 3mph /  4.8km/h 74% 0in /  0.0mm 0.00 W/m2
04:54 45 °F /  7.2 °C 37.2 °F /  2.9 °C 30.1in /  1020.5hPa ESE 0.9mph /  1.4km/h 3mph /  4.8km/h 74% 0in /  0.0mm 0.00 W/m2
04:59 44.8 °F /  7.1 °C 37.4 °F /  3.0 °C 30.1in /  1020.5hPa ESE 0.9mph /  1.4km/h 1mph /  1.6km/h 75% 0in /  0.0mm 0.00 W/m2
05:04 44.6 °F /  7.0 °C 37.2 °F /  2.9 °C 30.1in /  1020.5hPa ESE 0.9mph /  1.4km/h 3mph /  4.8km/h 75% 0in /  0.0mm 0.00 W/m2
05:09 44.6 °F /  7.0 °C 37.2 °F /  2.9 °C 30.1in /  1020.5hPa ESE 0.9mph /  1.4km/h 3mph /  4.8km/h 75% 0in /  0.0mm 0.00 W/m2
05:14 44.4 °F /  6.9 °C 37 °F /  2.8 °C 30.1in /  1020.5hPa Calm     75% 0in /  0.0mm 5.00 W/m2
05:19 44.4 °F /  6.9 °C 37 °F /  2.8 °C 30.1in /  1020.2hPa ESE 2mph /  3.2km/h 3mph /  4.8km/h 75% 0in /  0.0mm 7.00 W/m2
05:24 44.4 °F /  6.9 °C 37 °F /  2.8 °C 30.1in /  1020.2hPa Calm   1mph /  1.6km/h 75% 0in /  0.0mm 11.00 W/m2
05:29 44.6 °F /  7.0 °C 37.2 °F /  2.9 °C 30.1in /  1020.2hPa ESE 2mph /  3.2km/h 4mph /  6.4km/h 75% 0in /  0.0mm 18.00 W/m2
05:34 44.8 °F /  7.1 °C 37.4 °F /  3.0 °C 30.1in /  1020.2hPa ESE 2.9mph /  4.7km/h 3mph /  4.8km/h 75% 0in /  0.0mm 23.00 W/m2
05:39 44.6 °F /  7.0 °C 37.2 °F /  2.9 °C 30.1in /  1019.9hPa SSE 4mph /  6.4km/h 5mph /  8.0km/h 75% 0in /  0.0mm 30.00 W/m2
05:44 44.4 °F /  6.9 °C 37.4 °F /  3.0 °C 30.1in /  1019.9hPa SSE 4.9mph /  7.9km/h 6mph /  9.7km/h 76% 0in /  0.0mm 33.00 W/m2
05:49 44.4 °F /  6.9 °C 37.4 °F /  3.0 °C 30.1in /  1019.9hPa SSE 0.9mph /  1.4km/h 5mph /  8.0km/h 76% 0in /  0.0mm 39.00 W/m2
05:54 44.4 °F /  6.9 °C 37.4 °F /  3.0 °C 30.1in /  1019.9hPa SSE 2mph /  3.2km/h 6mph /  9.7km/h 76% 0in /  0.0mm 44.00 W/m2
05:59 44.4 °F /  6.9 °C 37.4 °F /  3.0 °C 30.1in /  1019.9hPa SSE 4mph /  6.4km/h 6mph /  9.7km/h 76% 0in /  0.0mm 53.00 W/m2
06:04 44.4 °F /  6.9 °C 37.4 °F /  3.0 °C 30.1in /  1019.9hPa SSE 2mph /  3.2km/h 5mph /  8.0km/h 76% 0in /  0.0mm 60.00 W/m2
06:09 44.4 °F /  6.9 °C 37.4 °F /  3.0 °C 30.1in /  1019.9hPa SSE 0.9mph /  1.4km/h 3mph /  4.8km/h 76% 0in /  0.0mm 63.00 W/m2
06:14 44.6 °F /  7.0 °C 37.8 °F /  3.2 °C 30.1in /  1019.9hPa SSE 4mph /  6.4km/h 5mph /  8.0km/h 77% 0in /  0.0mm 69.00 W/m2
06:19 44.6 °F /  7.0 °C 37.8 °F /  3.2 °C 30.1in /  1019.9hPa SSE 4mph /  6.4km/h 4mph /  6.4km/h 77% 0in /  0.0mm 74.00 W/m2
06:24 44.6 °F /  7.0 °C 37.8 °F /  3.2 °C 30.1in /  1019.9hPa SSE 2mph /  3.2km/h 6mph /  9.7km/h 77% 0in /  0.0mm 77.00 W/m2
06:29 45 °F /  7.2 °C 38.1 °F /  3.4 °C 30.1in /  1019.9hPa Calm   5mph /  8.0km/h 77% 0in /  0.0mm 81.00 W/m2
06:34 45.1 °F /  7.3 °C 38.3 °F /  3.5 °C 30.1in /  1019.9hPa Calm   3mph /  4.8km/h 77% 0in /  0.0mm 83.00 W/m2
06:39 45.3 °F /  7.4 °C 38.5 °F /  3.6 °C 30.1in /  1019.9hPa SSE 2.9mph /  4.7km/h 4mph /  6.4km/h 77% 0in /  0.0mm 84.00 W/m2
06:44 45.3 °F /  7.4 °C 38.5 °F /  3.6 °C 30.1in /  1019.9hPa Calm   4mph /  6.4km/h 77% 0in /  0.0mm 88.00 W/m2
06:49 45.5 °F /  7.5 °C 38.7 °F /  3.7 °C 30.1in /  1019.9hPa SSE 2.9mph /  4.7km/h 5mph /  8.0km/h 77% 0in /  0.0mm 97.00 W/m2
06:54 45.7 °F /  7.6 °C 38.8 °F /  3.8 °C 30.1in /  1019.9hPa SSE 2.9mph /  4.7km/h 4mph /  6.4km/h 77% 0in /  0.0mm 111.00 W/m2
06:59 45.9 °F /  7.7 °C 39 °F /  3.9 °C 30.1in /  1020.2hPa SSE 0.9mph /  1.4km/h 3mph /  4.8km/h 77% 0in /  0.0mm 120.00 W/m2
07:04 46 °F /  7.8 °C 39.2 °F /  4.0 °C 30.1in /  1020.2hPa SSE 2.9mph /  4.7km/h 7mph /  11.3km/h 77% 0in /  0.0mm 125.00 W/m2
07:09 45.9 °F /  7.7 °C 39 °F /  3.9 °C 30.1in /  1020.2hPa SSE 4mph /  6.4km/h 5mph /  8.0km/h 77% 0in /  0.0mm 139.00 W/m2
07:14 46 °F /  7.8 °C 39.2 °F /  4.0 °C 30.1in /  1020.2hPa SE 2.9mph /  4.7km/h 4mph /  6.4km/h 77% 0in /  0.0mm 142.00 W/m2
07:19 46.2 °F /  7.9 °C 39.4 °F /  4.1 °C 30.1in /  1020.2hPa SSE 0.9mph /  1.4km/h 4mph /  6.4km/h 77% 0in /  0.0mm 163.00 W/m2
07:24 46.6 °F /  8.1 °C 39.7 °F /  4.3 °C 30.1in /  1020.2hPa SE 0.9mph /  1.4km/h 4mph /  6.4km/h 77% 0in /  0.0mm 160.00 W/m2
07:29 46.8 °F /  8.2 °C 39.9 °F /  4.4 °C 30.1in /  1020.2hPa SE 2mph /  3.2km/h 5mph /  8.0km/h 77% 0in /  0.0mm 169.00 W/m2
07:34 47.1 °F /  8.4 °C 40.3 °F /  4.6 °C 30.1in /  1020.2hPa Calm   3mph /  4.8km/h 77% 0in /  0.0mm 223.00 W/m2
07:39 47.5 °F /  8.6 °C 40.6 °F /  4.8 °C 30.1in /  1020.2hPa SSE 6mph /  9.7km/h 6mph /  9.7km/h 77% 0in /  0.0mm 207.00 W/m2
07:44 47.7 °F /  8.7 °C 40.5 °F /  4.7 °C 30.1in /  1020.2hPa Calm   3mph /  4.8km/h 76% 0in /  0.0mm 202.00 W/m2
07:49 48 °F /  8.9 °C 40.8 °F /  4.9 °C 30.1in /  1019.9hPa ESE 2mph /  3.2km/h 5mph /  8.0km/h 76% 0in /  0.0mm 195.00 W/m2
07:54 48.2 °F /  9.0 °C 41 °F /  5.0 °C 30.1in /  1020.2hPa ENE 2mph /  3.2km/h 5mph /  8.0km/h 76% 0in /  0.0mm 211.00 W/m2
07:59 48.6 °F /  9.2 °C 41.4 °F /  5.2 °C 30.1in /  1020.2hPa ENE 0.9mph /  1.4km/h 1mph /  1.6km/h 76% 0in /  0.0mm 255.00 W/m2
08:04 48.6 °F /  9.2 °C 41 °F /  5.0 °C 30.1in /  1019.9hPa ESE 0.9mph /  1.4km/h 3mph /  4.8km/h 75% 0in /  0.0mm 244.00 W/m2
08:09 48.9 °F /  9.4 °C 41.4 °F /  5.2 °C 30.1in /  1019.9hPa Calm   2mph /  3.2km/h 75% 0in /  0.0mm 299.00 W/m2
08:14 49.3 °F /  9.6 °C 41.7 °F /  5.4 °C 30.1in /  1019.9hPa ESE 4mph /  6.4km/h 8mph /  12.9km/h 75% 0in /  0.0mm 313.00 W/m2
08:19 49.8 °F /  9.9 °C 41.9 °F /  5.5 °C 30.1in /  1019.9hPa SSE 4mph /  6.4km/h 7mph /  11.3km/h 74% 0in /  0.0mm 313.00 W/m2
08:24 50.4 °F /  10.2 °C 42.1 °F /  5.6 °C 30.1in /  1019.9hPa SE 4mph /  6.4km/h 4mph /  6.4km/h 73% 0in /  0.0mm 318.00 W/m2
08:29 50.7 °F /  10.4 °C 42.4 °F /  5.8 °C 30.1in /  1019.9hPa Calm   4mph /  6.4km/h 73% 0in /  0.0mm 329.00 W/m2
08:34 50.7 °F /  10.4 °C 42.4 °F /  5.8 °C 30.1in /  1019.9hPa East 2.9mph /  4.7km/h 5mph /  8.0km/h 73% 0in /  0.0mm 359.00 W/m2
08:39 51.1 °F /  10.6 °C 42.4 °F /  5.8 °C 30.1in /  1019.9hPa SSE 2.9mph /  4.7km/h 6mph /  9.7km/h 72% 0in /  0.0mm 366.00 W/m2
08:44 50.9 °F /  10.5 °C 42.3 °F /  5.7 °C 30.1in /  1019.9hPa ESE 4.9mph /  7.9km/h 7mph /  11.3km/h 72% 0in /  0.0mm 378.00 W/m2
08:49 51.4 °F /  10.8 °C 43.2 °F /  6.2 °C 30.1in /  1019.9hPa Calm   2mph /  3.2km/h 73% 0in /  0.0mm 401.00 W/m2
08:54 51.8 °F /  11.0 °C 43 °F /  6.1 °C 30.1in /  1019.9hPa SE 2.9mph /  4.7km/h 8mph /  12.9km/h 72% 0in /  0.0mm 390.00 W/m2
08:59 51.4 °F /  10.8 °C 42.8 °F /  6.0 °C 30.1in /  1019.9hPa SSE 2mph /  3.2km/h 4mph /  6.4km/h 72% 0in /  0.0mm 424.00 W/m2
09:04 52.3 °F /  11.3 °C 43.2 °F /  6.2 °C 30.1in /  1019.5hPa SE 4mph /  6.4km/h 6mph /  9.7km/h 71% 0in /  0.0mm 468.00 W/m2
09:09 52.9 °F /  11.6 °C 43.7 °F /  6.5 °C 30.1in /  1019.5hPa ESE 4.9mph /  7.9km/h 7mph /  11.3km/h 71% 0in /  0.0mm 494.00 W/m2
09:14 53.6 °F /  12.0 °C 44.1 °F /  6.7 °C 30.1in /  1019.5hPa ESE 2.9mph /  4.7km/h 9mph /  14.5km/h 70% 0in /  0.0mm 490.00 W/m2
09:19 54 °F /  12.2 °C 44.1 °F /  6.7 °C 30.1in /  1019.5hPa ENE 6.9mph /  11.1km/h 9mph /  14.5km/h 69% 0in /  0.0mm 476.00 W/m2
09:24 54.5 °F /  12.5 °C 44.6 °F /  7.0 °C 30.1in /  1019.5hPa NE 2mph /  3.2km/h 5mph /  8.0km/h 69% 0in /  0.0mm 455.00 W/m2
09:29 55.2 °F /  12.9 °C 44.8 °F /  7.1 °C 30.1in /  1019.5hPa ESE 4.9mph /  7.9km/h 6mph /  9.7km/h 68% 0in /  0.0mm 496.00 W/m2
09:34 55.2 °F /  12.9 °C 44.4 °F /  6.9 °C 30.1in /  1019.5hPa ESE 6mph /  9.7km/h 8mph /  12.9km/h 67% 0in /  0.0mm 524.00 W/m2
09:39 55.6 °F /  13.1 °C 44.8 °F /  7.1 °C 30.1in /  1019.5hPa SSE 0.9mph /  1.4km/h 5mph /  8.0km/h 67% 0in /  0.0mm 538.00 W/m2
09:44 56.3 °F /  13.5 °C 45.5 °F /  7.5 °C 30.1in /  1019.5hPa ENE 4.9mph /  7.9km/h 5mph /  8.0km/h 67% 0in /  0.0mm 561.00 W/m2
09:49 56.3 °F /  13.5 °C 44.6 °F /  7.0 °C 30.1in /  1019.5hPa ENE 8.9mph /  14.3km/h 9mph /  14.5km/h 65% 0in /  0.0mm 548.00 W/m2
09:54 56.5 °F /  13.6 °C 45.7 °F /  7.6 °C 30.1in /  1019.5hPa ESE 2mph /  3.2km/h 4mph /  6.4km/h 67% 0in /  0.0mm 533.00 W/m2
09:59 56.8 °F /  13.8 °C 45.7 °F /  7.6 °C 30.1in /  1019.2hPa ESE 4.9mph /  7.9km/h 6mph /  9.7km/h 66% 0in /  0.0mm 575.00 W/m2
10:04 57.6 °F /  14.2 °C 45.9 °F /  7.7 °C 30.1in /  1019.2hPa East 0.9mph /  1.4km/h 7mph /  11.3km/h 65% 0in /  0.0mm 592.00 W/m2
10:09 57.7 °F /  14.3 °C 45.7 °F /  7.6 °C 30.1in /  1019.2hPa Calm   5mph /  8.0km/h 64% 0in /  0.0mm 605.00 W/m2
10:14 57.7 °F /  14.3 °C 46 °F /  7.8 °C 30.1in /  1019.2hPa NE 2.9mph /  4.7km/h 9mph /  14.5km/h 65% 0in /  0.0mm 628.00 W/m2
10:19 58.1 °F /  14.5 °C 45.1 °F /  7.3 °C 30.1in /  1019.2hPa SSE 2.9mph /  4.7km/h 9mph /  14.5km/h 62% 0in /  0.0mm 613.00 W/m2
10:24 57.9 °F /  14.4 °C 46.9 °F /  8.3 °C 30.1in /  1019.2hPa Calm   11mph /  17.7km/h 67% 0in /  0.0mm 610.00 W/m2
10:29 58.8 °F /  14.9 °C 47.5 °F /  8.6 °C 30.1in /  1018.8hPa East 2.9mph /  4.7km/h 7mph /  11.3km/h 66% 0in /  0.0mm 469.00 W/m2
10:34 58.3 °F /  14.6 °C 46.9 °F /  8.3 °C 30.1in /  1018.8hPa ESE 4mph /  6.4km/h 7mph /  11.3km/h 66% 0in /  0.0mm 540.00 W/m2
10:39 59.4 °F /  15.2 °C 48 °F /  8.9 °C 30.1in /  1018.8hPa NE 0.9mph /  1.4km/h 2mph /  3.2km/h 66% 0in /  0.0mm 610.00 W/m2
10:44 59.7 °F /  15.4 °C 48 °F /  8.9 °C 30.1in /  1018.8hPa NE 2.9mph /  4.7km/h 7mph /  11.3km/h 65% 0in /  0.0mm 599.00 W/m2
10:49 60.3 °F /  15.7 °C 45.5 °F /  7.5 °C 30.1in /  1018.8hPa East 0.9mph /  1.4km/h 11mph /  17.7km/h 58% 0in /  0.0mm 605.00 W/m2
10:54 60.6 °F /  15.9 °C 45.3 °F /  7.4 °C 30.1in /  1018.8hPa SE 8.9mph /  14.3km/h 9mph /  14.5km/h 57% 0in /  0.0mm 619.00 W/m2
10:59 60.3 °F /  15.7 °C 45.5 °F /  7.5 °C 30.1in /  1018.8hPa ESE 6.9mph /  11.1km/h 9mph /  14.5km/h 58% 0in /  0.0mm 619.00 W/m2
11:04 60.6 °F /  15.9 °C 44.8 °F /  7.1 °C 30.1in /  1018.8hPa ESE 2mph /  3.2km/h 10mph /  16.1km/h 56% 0in /  0.0mm 650.00 W/m2
11:09 59.9 °F /  15.5 °C 43.7 °F /  6.5 °C 30.1in /  1018.8hPa SSE 4mph /  6.4km/h 8mph /  12.9km/h 55% 0in /  0.0mm 652.00 W/m2
11:14 61 °F /  16.1 °C 45.1 °F /  7.3 °C 30.1in /  1018.5hPa East 4.9mph /  7.9km/h 5mph /  8.0km/h 56% 0in /  0.0mm 656.00 W/m2
11:19 61.9 °F /  16.6 °C 45.1 °F /  7.3 °C 30.1in /  1018.5hPa East 2.9mph /  4.7km/h 8mph /  12.9km/h 54% 0in /  0.0mm 670.00 W/m2
11:24 62.4 °F /  16.9 °C 45.1 °F /  7.3 °C 30.1in /  1018.5hPa SE 13mph /  20.9km/h 13mph /  20.9km/h 53% 0in /  0.0mm 705.00 W/m2
11:29 62.1 °F /  16.7 °C 44.2 °F /  6.8 °C 30.1in /  1018.5hPa SSE 2.9mph /  4.7km/h 7mph /  11.3km/h 52% 0in /  0.0mm 708.00 W/m2
11:34 62.1 °F /  16.7 °C 44.8 °F /  7.1 °C 30.1in /  1018.5hPa ESE 13mph /  20.9km/h 13mph /  20.9km/h 53% 0in /  0.0mm 691.00 W/m2
11:39 61.5 °F /  16.4 °C 42.6 °F /  5.9 °C 30.1in /  1018.5hPa NE 4mph /  6.4km/h 11mph /  17.7km/h 50% 0in /  0.0mm 687.00 W/m2
11:44 62.6 °F /  17.0 °C 43.7 °F /  6.5 °C 30.1in /  1018.2hPa SE 8.1mph /  13.0km/h 13mph /  20.9km/h 50% 0in /  0.0mm 714.00 W/m2
11:49 62.6 °F /  17.0 °C 43.2 °F /  6.2 °C 30.1in /  1018.2hPa South 6.9mph /  11.1km/h 8mph /  12.9km/h 49% 0in /  0.0mm 707.00 W/m2
11:54 62.2 °F /  16.8 °C 42.8 °F /  6.0 °C 30.1in /  1018.2hPa SE 6.9mph /  11.1km/h 12mph /  19.3km/h 49% 0in /  0.0mm 710.00 W/m2
11:59 62.6 °F /  17.0 °C 42.6 °F /  5.9 °C 30.1in /  1018.2hPa East 4.9mph /  7.9km/h 10mph /  16.1km/h 48% 0in /  0.0mm 719.00 W/m2
12:04 63.5 °F /  17.5 °C 43 °F /  6.1 °C 30.1in /  1018.2hPa East 6.9mph /  11.1km/h 8mph /  12.9km/h 47% 0in /  0.0mm 773.00 W/m2
12:09 63.9 °F /  17.7 °C 43.2 °F /  6.2 °C 30.1in /  1018.2hPa South 6.9mph /  11.1km/h 7mph /  11.3km/h 47% 0in /  0.0mm 784.00 W/m2
12:14 62.6 °F /  17.0 °C 41.5 °F /  5.3 °C 30.1in /  1017.8hPa Calm   9mph /  14.5km/h 46% 0in /  0.0mm 731.00 W/m2
12:19 63 °F /  17.2 °C 41.9 °F /  5.5 °C 30.1in /  1017.8hPa SE 10.1mph /  16.3km/h 10mph /  16.1km/h 46% 0in /  0.0mm 721.00 W/m2
12:24 63.3 °F /  17.4 °C 42.3 °F /  5.7 °C 30.1in /  1017.8hPa SE 0.9mph /  1.4km/h 8mph /  12.9km/h 46% 0in /  0.0mm 696.00 W/m2
12:29 62.1 °F /  16.7 °C 40.5 °F /  4.7 °C 30.1in /  1017.8hPa South 8.9mph /  14.3km/h 11mph /  17.7km/h 45% 0in /  0.0mm 657.00 W/m2
12:34 62.6 °F /  17.0 °C 41 °F /  5.0 °C 30.1in /  1017.8hPa East 2.9mph /  4.7km/h 9mph /  14.5km/h 45% 0in /  0.0mm 577.00 W/m2
12:39 62.6 °F /  17.0 °C 40.5 °F /  4.7 °C 30.1in /  1017.8hPa ESE 2mph /  3.2km/h 11mph /  17.7km/h 44% 0in /  0.0mm 587.00 W/m2
12:44 63.5 °F /  17.5 °C 41.2 °F /  5.1 °C 30.1in /  1017.8hPa ESE 0.9mph /  1.4km/h 12mph /  19.3km/h 44% 0in /  0.0mm 643.00 W/m2
12:49 62.4 °F /  16.9 °C 39.6 °F /  4.2 °C 30.1in /  1017.8hPa SSE 6mph /  9.7km/h 10mph /  16.1km/h 43% 0in /  0.0mm 643.00 W/m2
12:54 62.4 °F /  16.9 °C 41.4 °F /  5.2 °C 30.1in /  1017.8hPa East 2mph /  3.2km/h 8mph /  12.9km/h 46% 0in /  0.0mm 628.00 W/m2
12:59 63.9 °F /  17.7 °C 42.1 °F /  5.6 °C 30.1in /  1017.8hPa East 6.9mph /  11.1km/h 8mph /  12.9km/h 45% 0in /  0.0mm 617.00 W/m2
13:04 63.1 °F /  17.3 °C 42.1 °F /  5.6 °C 30.1in /  1017.8hPa SE 6.9mph /  11.1km/h 7mph /  11.3km/h 46% 0in /  0.0mm 647.00 W/m2
13:09 64.2 °F /  17.9 °C 41.9 °F /  5.5 °C 30.1in /  1017.5hPa SSE 6mph /  9.7km/h 9mph /  14.5km/h 44% 0in /  0.0mm 738.00 W/m2
13:14 62.6 °F /  17.0 °C 41 °F /  5.0 °C 30.1in /  1017.5hPa SE 6mph /  9.7km/h 9mph /  14.5km/h 45% 0in /  0.0mm 759.00 W/m2
13:19 63.3 °F /  17.4 °C 41.5 °F /  5.3 °C 30.1in /  1017.5hPa SSE 8.9mph /  14.3km/h 10mph /  16.1km/h 45% 0in /  0.0mm 721.00 W/m2
13:24 62.6 °F /  17.0 °C 41.5 °F /  5.3 °C 30in /  1017.2hPa East 11mph /  17.7km/h 11mph /  17.7km/h 46% 0in /  0.0mm 812.00 W/m2
13:29 63.3 °F /  17.4 °C 41 °F /  5.0 °C 30in /  1017.2hPa SE 6mph /  9.7km/h 15mph /  24.1km/h 44% 0in /  0.0mm 898.00 W/m2
13:34 63 °F /  17.2 °C 41.9 °F /  5.5 °C 30in /  1017.2hPa SSE 6mph /  9.7km/h 12mph /  19.3km/h 46% 0in /  0.0mm 923.00 W/m2
13:39 62.4 °F /  16.9 °C 41.4 °F /  5.2 °C 30in /  1017.2hPa South 4.9mph /  7.9km/h 9mph /  14.5km/h 46% 0in /  0.0mm 960.00 W/m2
13:44 62.4 °F /  16.9 °C 41.9 °F /  5.5 °C 30in /  1016.8hPa SSE 4mph /  6.4km/h 12mph /  19.3km/h 47% 0in /  0.0mm 285.00 W/m2
13:49 63.5 °F /  17.5 °C 41.7 °F /  5.4 °C 30in /  1016.8hPa SSE 8.9mph /  14.3km/h 9mph /  14.5km/h 45% 0in /  0.0mm 853.00 W/m2
13:54 62.1 °F /  16.7 °C 41 °F /  5.0 °C 30in /  1016.8hPa SSE 8.9mph /  14.3km/h 13mph /  20.9km/h 46% 0in /  0.0mm 877.00 W/m2
13:59 62.1 °F /  16.7 °C 41 °F /  5.0 °C 30in /  1016.8hPa ESE 4mph /  6.4km/h 14mph /  22.5km/h 46% 0in /  0.0mm 965.00 W/m2
14:04 64 °F /  17.8 °C 42.8 °F /  6.0 °C 30in /  1016.8hPa ENE 2mph /  3.2km/h 10mph /  16.1km/h 46% 0in /  0.0mm 969.00 W/m2
14:09 64.8 °F /  18.2 °C 43 °F /  6.1 °C 30in /  1016.8hPa ENE 2.9mph /  4.7km/h 6mph /  9.7km/h 45% 0in /  0.0mm 339.00 W/m2
14:14 65.8 °F /  18.8 °C 43.9 °F /  6.6 °C 30in /  1016.5hPa Calm   8mph /  12.9km/h 45% 0in /  0.0mm 962.00 W/m2
14:19 66.2 °F /  19.0 °C 43.7 °F /  6.5 °C 30in /  1016.5hPa SE 13mph /  20.9km/h 13mph /  20.9km/h 44% 0in /  0.0mm 954.00 W/m2
14:24 65.5 °F /  18.6 °C 43.5 °F /  6.4 °C 30in /  1016.5hPa SSE 6mph /  9.7km/h 8mph /  12.9km/h 45% 0in /  0.0mm 846.00 W/m2
14:29 65.5 °F /  18.6 °C 44.2 °F /  6.8 °C 30in /  1016.5hPa ENE 4mph /  6.4km/h 10mph /  16.1km/h 46% 0in /  0.0mm 332.00 W/m2
14:34 65.7 °F /  18.7 °C 43.7 °F /  6.5 °C 30in /  1016.5hPa ESE 2mph /  3.2km/h 9mph /  14.5km/h 45% 0in /  0.0mm 925.00 W/m2
14:39 66.2 °F /  19.0 °C 44.2 °F /  6.8 °C 30in /  1016.5hPa ESE 4.9mph /  7.9km/h 8mph /  12.9km/h 45% 0in /  0.0mm 842.00 W/m2
14:44 65.3 °F /  18.5 °C 44.1 °F /  6.7 °C 30in /  1016.5hPa NE 4.9mph /  7.9km/h 9mph /  14.5km/h 46% 0in /  0.0mm 243.00 W/m2
14:49 64.2 °F /  17.9 °C 43.5 °F /  6.4 °C 30in /  1016.5hPa East 6mph /  9.7km/h 7mph /  11.3km/h 47% 0in /  0.0mm 315.00 W/m2
14:54 65.1 °F /  18.4 °C 43.9 °F /  6.6 °C 30in /  1016.1hPa Calm   10mph /  16.1km/h 46% 0in /  0.0mm 826.00 W/m2
14:59 65.5 °F /  18.6 °C 44.2 °F /  6.8 °C 30in /  1016.1hPa NE 2mph /  3.2km/h 9mph /  14.5km/h 46% 0in /  0.0mm 232.00 W/m2
15:04 64.9 °F /  18.3 °C 44.2 °F /  6.8 °C 30in /  1016.1hPa SSE 2mph /  3.2km/h 4mph /  6.4km/h 47% 0in /  0.0mm 246.00 W/m2
15:09 64.4 °F /  18.0 °C 43.2 °F /  6.2 °C 30in /  1016.1hPa ESE 2.9mph /  4.7km/h 7mph /  11.3km/h 46% 0in /  0.0mm 271.00 W/m2
15:14 64.4 °F /  18.0 °C 43.2 °F /  6.2 °C 30in /  1016.1hPa SE 2mph /  3.2km/h 6mph /  9.7km/h 46% 0in /  0.0mm 318.00 W/m2
15:19 65.3 °F /  18.5 °C 44.1 °F /  6.7 °C 30in /  1015.8hPa ESE 4mph /  6.4km/h 5mph /  8.0km/h 46% 0in /  0.0mm 675.00 W/m2
15:24 64.9 °F /  18.3 °C 42.4 °F /  5.8 °C 30in /  1015.8hPa ESE 12mph /  19.3km/h 12mph /  19.3km/h 44% 0in /  0.0mm 390.00 W/m2
15:29 64.4 °F /  18.0 °C 43.2 °F /  6.2 °C 30in /  1015.8hPa East 4.9mph /  7.9km/h 10mph /  16.1km/h 46% 0in /  0.0mm 710.00 W/m2
15:34 63.9 °F /  17.7 °C 42.6 °F /  5.9 °C 30in /  1015.8hPa East 2.9mph /  4.7km/h 13mph /  20.9km/h 46% 0in /  0.0mm 691.00 W/m2
15:39 64.6 °F /  18.1 °C 42.8 °F /  6.0 °C 30in /  1015.8hPa ESE 6.9mph /  11.1km/h 9mph /  14.5km/h 45% 0in /  0.0mm 294.00 W/m2
15:44 65.1 °F /  18.4 °C 42.6 °F /  5.9 °C 30in /  1015.5hPa NE 4mph /  6.4km/h 7mph /  11.3km/h 44% 0in /  0.0mm 793.00 W/m2
15:49 65.7 °F /  18.7 °C 43.2 °F /  6.2 °C 30in /  1015.5hPa ESE 4mph /  6.4km/h 11mph /  17.7km/h 44% 0in /  0.0mm 243.00 W/m2
15:54 64.8 °F /  18.2 °C 43 °F /  6.1 °C 30in /  1015.5hPa Calm   7mph /  11.3km/h 45% 0in /  0.0mm 225.00 W/m2
15:59 64.8 °F /  18.2 °C 43 °F /  6.1 °C 30in /  1015.5hPa ENE 2.9mph /  4.7km/h 8mph /  12.9km/h 45% 0in /  0.0mm 220.00 W/m2
16:04 64.6 °F /  18.1 °C 42.8 °F /  6.0 °C 30in /  1015.5hPa Calm   9mph /  14.5km/h 45% 0in /  0.0mm 206.00 W/m2
16:09 64.2 °F /  17.9 °C 43 °F /  6.1 °C 30in /  1015.1hPa ESE 0.9mph /  1.4km/h 4mph /  6.4km/h 46% 0in /  0.0mm 213.00 W/m2
16:14 63.7 °F /  17.6 °C 42.4 °F /  5.8 °C 30in /  1015.1hPa SSE 6.9mph /  11.1km/h 9mph /  14.5km/h 46% 0in /  0.0mm 257.00 W/m2
16:19 63.5 °F /  17.5 °C 42.3 °F /  5.7 °C 30in /  1015.1hPa East 2.9mph /  4.7km/h 11mph /  17.7km/h 46% 0in /  0.0mm 304.00 W/m2
16:24 64 °F /  17.8 °C 42.3 °F /  5.7 °C 30in /  1015.1hPa SSE 4mph /  6.4km/h 8mph /  12.9km/h 45% 0in /  0.0mm 531.00 W/m2
16:29 63.9 °F /  17.7 °C 42.1 °F /  5.6 °C 30in /  1015.1hPa ESE 2.9mph /  4.7km/h 8mph /  12.9km/h 45% 0in /  0.0mm 622.00 W/m2
16:34 64.2 °F /  17.9 °C 42.4 °F /  5.8 °C 30in /  1015.1hPa ENE 2mph /  3.2km/h 8mph /  12.9km/h 45% 0in /  0.0mm 621.00 W/m2
16:39 64.6 °F /  18.1 °C 42.8 °F /  6.0 °C 30in /  1015.1hPa SE 11mph /  17.7km/h 11mph /  17.7km/h 45% 0in /  0.0mm 410.00 W/m2
16:44 64.9 °F /  18.3 °C 43.2 °F /  6.2 °C 30in /  1014.8hPa NE 2mph /  3.2km/h 10mph /  16.1km/h 45% 0in /  0.0mm 209.00 W/m2
16:49 64.8 °F /  18.2 °C 43 °F /  6.1 °C 30in /  1014.8hPa NNE 11mph /  17.7km/h 11mph /  17.7km/h 45% 0in /  0.0mm 649.00 W/m2
16:54 65.3 °F /  18.5 °C 44.1 °F /  6.7 °C 30in /  1014.8hPa ENE 2.9mph /  4.7km/h 7mph /  11.3km/h 46% 0in /  0.0mm 654.00 W/m2
16:59 66 °F /  18.9 °C 43.5 °F /  6.4 °C 30in /  1014.8hPa East 4.9mph /  7.9km/h 14mph /  22.5km/h 44% 0in /  0.0mm 624.00 W/m2
17:04 65.7 °F /  18.7 °C 43.2 °F /  6.2 °C 30in /  1014.8hPa NE 4mph /  6.4km/h 11mph /  17.7km/h 44% 0in /  0.0mm 206.00 W/m2
17:09 64.8 °F /  18.2 °C 43 °F /  6.1 °C 30in /  1014.8hPa ESE 2.9mph /  4.7km/h 14mph /  22.5km/h 45% 0in /  0.0mm 195.00 W/m2
17:14 63.5 °F /  17.5 °C 43.5 °F /  6.4 °C 30in /  1014.8hPa SE 4mph /  6.4km/h 11mph /  17.7km/h 48% 0in /  0.0mm 181.00 W/m2
17:19 63 °F /  17.2 °C 43 °F /  6.1 °C 30in /  1014.8hPa NE 4.9mph /  7.9km/h 15mph /  24.1km/h 48% 0in /  0.0mm 123.00 W/m2
17:24 62.8 °F /  17.1 °C 43.9 °F /  6.6 °C 30in /  1014.8hPa East 6mph /  9.7km/h 12mph /  19.3km/h 50% 0in /  0.0mm 120.00 W/m2
17:29 62.4 °F /  16.9 °C 44.1 °F /  6.7 °C 30in /  1014.8hPa ESE 6mph /  9.7km/h 14mph /  22.5km/h 51% 0in /  0.0mm 141.00 W/m2
17:34 62.1 °F /  16.7 °C 44.2 °F /  6.8 °C 30in /  1014.8hPa Calm   10mph /  16.1km/h 52% 0in /  0.0mm 163.00 W/m2
17:39 62.1 °F /  16.7 °C 44.2 °F /  6.8 °C 30in /  1014.8hPa ESE 10.1mph /  16.3km/h 11mph /  17.7km/h 52% 0in /  0.0mm 167.00 W/m2
17:44 61.7 °F /  16.5 °C 43.3 °F /  6.3 °C 30in /  1014.8hPa East 2.9mph /  4.7km/h 8mph /  12.9km/h 51% 0in /  0.0mm 163.00 W/m2
17:49 61.7 °F /  16.5 °C 44.4 °F /  6.9 °C 30in /  1014.8hPa ESE 8.9mph /  14.3km/h 14mph /  22.5km/h 53% 0in /  0.0mm 151.00 W/m2
17:54 61.7 °F /  16.5 °C 44.4 °F /  6.9 °C 30in /  1014.8hPa East 2.9mph /  4.7km/h 8mph /  12.9km/h 53% 0in /  0.0mm 151.00 W/m2
17:59 61.5 °F /  16.4 °C 44.2 °F /  6.8 °C 30in /  1014.8hPa ESE 10.1mph /  16.3km/h 14mph /  22.5km/h 53% 0in /  0.0mm 171.00 W/m2
18:04 61.3 °F /  16.3 °C 44.1 °F /  6.7 °C 30in /  1014.8hPa ESE 2mph /  3.2km/h 8mph /  12.9km/h 53% 0in /  0.0mm 149.00 W/m2
18:09 61.3 °F /  16.3 °C 44.1 °F /  6.7 °C 30in /  1014.8hPa East 4mph /  6.4km/h 10mph /  16.1km/h 53% 0in /  0.0mm 107.00 W/m2
18:14 61.2 °F /  16.2 °C 43.3 °F /  6.3 °C 30in /  1014.8hPa ESE 2mph /  3.2km/h 10mph /  16.1km/h 52% 0in /  0.0mm 95.00 W/m2
18:19 61.2 °F /  16.2 °C 43.9 °F /  6.6 °C 30in /  1014.8hPa East 4.9mph /  7.9km/h 9mph /  14.5km/h 53% 0in /  0.0mm 100.00 W/m2
18:24 61.2 °F /  16.2 °C 43.3 °F /  6.3 °C 30in /  1014.8hPa NE 0.9mph /  1.4km/h 9mph /  14.5km/h 52% 0in /  0.0mm 109.00 W/m2
18:29 61.2 °F /  16.2 °C 43.9 °F /  6.6 °C 30in /  1014.8hPa ESE 6.9mph /  11.1km/h 12mph /  19.3km/h 53% 0in /  0.0mm 114.00 W/m2
18:34 61.2 °F /  16.2 °C 43.3 °F /  6.3 °C 30in /  1014.4hPa ESE 6.9mph /  11.1km/h 8mph /  12.9km/h 52% 0in /  0.0mm 120.00 W/m2
18:39 61.2 °F /  16.2 °C 43.9 °F /  6.6 °C 30in /  1014.4hPa Calm   7mph /  11.3km/h 53% 0in /  0.0mm 118.00 W/m2
18:44 61.3 °F /  16.3 °C 43.5 °F /  6.4 °C 30in /  1014.4hPa East 2mph /  3.2km/h 11mph /  17.7km/h 52% 0in /  0.0mm 118.00 W/m2
18:49 61 °F /  16.1 °C 43.2 °F /  6.2 °C 30in /  1014.8hPa NE 4.9mph /  7.9km/h 9mph /  14.5km/h 52% 0in /  0.0mm 109.00 W/m2
18:54 60.8 °F /  16.0 °C 43.5 °F /  6.4 °C 30in /  1014.8hPa SE 4.9mph /  7.9km/h 9mph /  14.5km/h 53% 0in /  0.0mm 90.00 W/m2
18:59 60.6 °F /  15.9 °C 43.3 °F /  6.3 °C 30in /  1014.8hPa ESE 6.9mph /  11.1km/h 9mph /  14.5km/h 53% 0in /  0.0mm 79.00 W/m2
19:04 60.6 °F /  15.9 °C 43.3 °F /  6.3 °C 30in /  1014.4hPa Calm   3mph /  4.8km/h 53% 0in /  0.0mm 83.00 W/m2
19:09 60.8 °F /  16.0 °C 44.1 °F /  6.7 °C 30in /  1014.4hPa ENE 2.9mph /  4.7km/h 6mph /  9.7km/h 54% 0in /  0.0mm 83.00 W/m2
19:14 60.8 °F /  16.0 °C 43 °F /  6.1 °C 30in /  1014.4hPa Calm   4mph /  6.4km/h 52% 0in /  0.0mm 77.00 W/m2
19:19 61.2 °F /  16.2 °C 43.9 °F /  6.6 °C 30in /  1014.4hPa Calm   2mph /  3.2km/h 53% 0in /  0.0mm 69.00 W/m2
19:24 61 °F /  16.1 °C 43.2 °F /  6.2 °C 30in /  1014.4hPa East 2mph /  3.2km/h 10mph /  16.1km/h 52% 0in /  0.0mm 67.00 W/m2
19:29 60.6 °F /  15.9 °C 42.4 °F /  5.8 °C 30in /  1014.4hPa NE 0.9mph /  1.4km/h 7mph /  11.3km/h 51% 0in /  0.0mm 69.00 W/m2
19:33 60.4 °F /  15.8 °C 42.3 °F /  5.7 °C 30in /  1014.4hPa ENE 4mph /  6.4km/h 7mph /  11.3km/h 51% 0in /  0.0mm 70.00 W/m2
19:39 60.3 °F /  15.7 °C 42.6 °F /  5.9 °C 30in /  1014.4hPa Calm   7mph /  11.3km/h 52% 0in /  0.0mm 105.00 W/m2
19:44 60.3 °F /  15.7 °C 42.6 °F /  5.9 °C 30in /  1014.4hPa ENE 2.9mph /  4.7km/h 3mph /  4.8km/h 52% 0in /  0.0mm 81.00 W/m2
19:48 60.4 °F /  15.8 °C 42.8 °F /  6.0 °C 30in /  1014.4hPa ENE 0.9mph /  1.4km/h 4mph /  6.4km/h 52% 0in /  0.0mm 74.00 W/m2
19:54 60.3 °F /  15.7 °C 42.6 °F /  5.9 °C 30in /  1014.4hPa NE 0.9mph /  1.4km/h 5mph /  8.0km/h 52% 0in /  0.0mm 54.00 W/m2
19:59 60.1 °F /  15.6 °C 42.4 °F /  5.8 °C 30in /  1014.4hPa NE 4mph /  6.4km/h 6mph /  9.7km/h 52% 0in /  0.0mm 46.00 W/m2
20:04 59.9 °F /  15.5 °C 42.3 °F /  5.7 °C 30in /  1014.4hPa NE 2.9mph /  4.7km/h 3mph /  4.8km/h 52% 0in /  0.0mm 35.00 W/m2
20:09 59.5 °F /  15.3 °C 41.9 °F /  5.5 °C 30in /  1014.4hPa East 2.9mph /  4.7km/h 6mph /  9.7km/h 52% 0in /  0.0mm 26.00 W/m2
20:14 59.4 °F /  15.2 °C 41.2 °F /  5.1 °C 30in /  1014.4hPa NE 0.9mph /  1.4km/h 8mph /  12.9km/h 51% 0in /  0.0mm 23.00 W/m2
20:18 59 °F /  15.0 °C 41.4 °F /  5.2 °C 30in /  1014.4hPa ENE 2.9mph /  4.7km/h 10mph /  16.1km/h 52% 0in /  0.0mm 19.00 W/m2
20:20 59 °F /  15.0 °C 41.4 °F /  5.2 °C 30in /  1014.4hPa ENE 2.9mph /  4.7km/h 3mph /  4.8km/h 52% 0in /  0.0mm 16.00 W/m2
20:29 58.3 °F /  14.6 °C 40.3 °F /  4.6 °C 30in /  1014.4hPa SE 4.9mph /  7.9km/h 6mph /  9.7km/h 51% 0in /  0.0mm 12.00 W/m2
20:33 58.1 °F /  14.5 °C 40.6 °F /  4.8 °C 30in /  1014.4hPa East 2mph /  3.2km/h 12mph /  19.3km/h 52% 0in /  0.0mm 11.00 W/m2
20:34 58.1 °F /  14.5 °C 40.6 °F /  4.8 °C 30in /  1014.4hPa ENE 2.9mph /  4.7km/h 12mph /  19.3km/h 52% 0in /  0.0mm 11.00 W/m2
20:44 57.6 °F /  14.2 °C 41 °F /  5.0 °C 30in /  1014.4hPa NNE 6mph /  9.7km/h 13mph /  20.9km/h 54% 0in /  0.0mm 7.00 W/m2
20:49 57.2 °F /  14.0 °C 41.2 °F /  5.1 °C 30in /  1014.4hPa NE 10.1mph /  16.3km/h 10mph /  16.1km/h 55% 0in /  0.0mm 5.00 W/m2
20:54 57 °F /  13.9 °C 41 °F /  5.0 °C 30in /  1014.4hPa East 6.9mph /  11.1km/h 8mph /  12.9km/h 55% 0in /  0.0mm 0.00 W/m2
20:59 56.8 °F /  13.8 °C 41.4 °F /  5.2 °C 30in /  1014.4hPa Calm   7mph /  11.3km/h 56% 0in /  0.0mm 0.00 W/m2
21:02 56.8 °F /  13.8 °C 41.4 °F /  5.2 °C 30in /  1014.4hPa East 2mph /  3.2km/h 4mph /  6.4km/h 56% 0in /  0.0mm 0.00 W/m2
21:03 56.8 °F /  13.8 °C 41.4 °F /  5.2 °C 30in /  1014.4hPa Calm   4mph /  6.4km/h 56% 0in /  0.0mm 0.00 W/m2
23:14 52.7 °F /  11.5 °C 41.2 °F /  5.1 °C 30in /  1014.4hPa Calm     65% 0in /  0.0mm 0.00 W/m2
23:19 52.3 °F /  11.3 °C 41 °F /  5.0 °C 30in /  1014.4hPa Calm     65% 0in /  0.0mm 0.00 W/m2
23:24 52.2 °F /  11.2 °C 41.2 °F /  5.1 °C 29.9in /  1014.1hPa Calm   1mph /  1.6km/h 66% 0in /  0.0mm 0.00 W/m2
23:29 52 °F /  11.1 °C 41 °F /  5.0 °C 29.9in /  1014.1hPa Calm   3mph /  4.8km/h 66% 0in /  0.0mm 0.00 W/m2
23:34 51.8 °F /  11.0 °C 40.8 °F /  4.9 °C 29.9in /  1014.1hPa Calm   2mph /  3.2km/h 66% 0in /  0.0mm 0.00 W/m2
23:39 51.6 °F /  10.9 °C 41 °F /  5.0 °C 29.9in /  1014.1hPa East 3mph /  4.8km/h 3mph /  4.8km/h 67% 0in /  0.0mm 0.00 W/m2
23:44 51.4 °F /  10.8 °C 40.8 °F /  4.9 °C 29.9in /  1014.1hPa Calm   2mph /  3.2km/h 67% 0in /  0.0mm 0.00 W/m2
23:49 51.4 °F /  10.8 °C 40.8 °F /  4.9 °C 29.9in /  1014.1hPa East 0.9mph /  1.4km/h 3mph /  4.8km/h 67% 0in /  0.0mm 0.00 W/m2
23:54 51.3 °F /  10.7 °C 40.6 °F /  4.8 °C 29.9in /  1014.1hPa East 2.9mph /  4.7km/h 3mph /  4.8km/h 67% 0in /  0.0mm 0.00 W/m2
23:59 51.1 °F /  10.6 °C 40.8 °F /  4.9 °C 29.9in /  1013.8hPa Calm   3mph /  4.8km/h 68% 0in /  0.0mm 0.00 W/m2